Time;durP1;ratioP1;P1;durP2;ratioP2;P2;SDS_P1;SDS_P2;PMS_P1;PMS_P2;Temp;Humidity;BMP_temperature;BMP_pressure;BME280_temperature;BME280_humidity;BME280_pressure;Samples;Min_cycle;Max_cycle;Signal;HPM_P1;HPM_P2
2022/01/28 00:02:44;;;;;;;101.23;61.23;;;5.20;84.30;;;;;;4976258;28;20031;-68
2022/01/28 00:05:00;;;;;;;104.93;69.23;;;5.20;83.70;;;;;;4974118;28;20098;-69
2022/01/28 00:07:26;;;;;;;109.27;71.43;;;5.10;83.60;;;;;;4975603;28;20456;-70
2022/01/28 00:09:51;;;;;;;108.87;69.33;;;5.20;83.60;;;;;;4975624;28;20054;-69
2022/01/28 00:12:17;;;;;;;100.63;62.83;;;5.20;83.50;;;;;;4975776;28;20027;-69
2022/01/28 00:17:59;;;;;;;101.53;63.67;;;5.20;83.50;;;;;;4975839;28;20058;-69
2022/01/28 00:38:56;;;;;;;109.13;65.07;;;5.00;84.40;;;;;;4975265;28;20031;-69
2022/01/28 00:41:22;;;;;;;99.50;65.20;;;5.10;84.60;;;;;;4975405;28;20019;-68
2022/01/28 00:43:48;;;;;;;98.23;63.33;;;5.00;84.50;;;;;;4975480;28;20027;-68
2022/01/28 00:46:13;;;;;;;98.13;63.60;;;5.00;84.60;;;;;;4975089;28;20023;-69
2022/01/28 00:48:39;;;;;;;99.60;65.67;;;5.00;84.80;;;;;;4975028;28;20035;-68
2022/01/28 00:51:06;;;;;;;101.27;65.37;;;5.00;84.80;;;;;;4974950;28;20472;-69
2022/01/28 00:53:32;;;;;;;104.70;64.77;;;5.00;84.90;;;;;;4975030;28;20031;-69
2022/01/28 00:55:58;;;;;;;101.03;66.30;;;5.00;84.90;;;;;;4975030;28;20030;-68
2022/01/28 00:58:24;;;;;;;97.97;63.80;;;5.00;85.00;;;;;;4974776;28;20029;-69
2022/01/28 01:00:50;;;;;;;102.40;64.97;;;5.00;85.20;;;;;;4974910;28;20466;-68
2022/01/28 01:03:16;;;;;;;107.40;65.47;;;5.00;85.20;;;;;;4974740;28;20093;-68
2022/01/28 01:05:42;;;;;;;95.60;63.80;;;5.00;85.20;;;;;;4974620;28;20467;-69
2022/01/28 01:08:08;;;;;;;91.40;59.63;;;5.00;85.30;;;;;;4973465;28;20038;-68
2022/01/28 01:10:34;;;;;;;101.70;60.90;;;5.00;85.20;;;;;;4974606;28;20494;-68
2022/01/28 01:13:01;;;;;;;97.90;62.23;;;5.00;85.20;;;;;;4974606;28;20031;-68
2022/01/28 01:15:33;;;;;;;94.73;60.20;;;5.00;85.30;;;;;;4974668;28;20065;-68
2022/01/28 01:25:33;;;;;;;95.07;59.93;;;4.90;85.30;;;;;;4974873;28;20163;-68
2022/01/28 01:27:59;;;;;;;88.40;59.97;;;4.90;85.40;;;;;;4974098;28;20053;-68
2022/01/28 01:30:28;;;;;;;97.13;61.20;;;4.90;85.50;;;;;;4974721;28;20491;-68
2022/01/28 01:32:54;;;;;;;92.80;58.33;;;4.90;85.60;;;;;;4974462;28;20031;-69
2022/01/28 01:35:19;;;;;;;88.97;58.40;;;4.90;85.60;;;;;;4974222;28;20027;-69
2022/01/28 01:37:45;;;;;;;90.20;59.83;;;4.90;85.60;;;;;;4974214;28;20602;-69
2022/01/28 01:40:12;;;;;;;90.53;60.40;;;4.90;85.60;;;;;;4974415;28;20479;-69
2022/01/28 01:53:15;;;;;;;96.47;61.20;;;4.90;85.40;;;;;;4974181;28;20041;-69
2022/01/28 01:55:41;;;;;;;93.20;60.47;;;4.90;85.40;;;;;;4974043;28;20018;-68
2022/01/28 01:58:07;;;;;;;92.17;58.90;;;5.00;85.50;;;;;;4974286;28;20403;-68
2022/01/28 02:00:33;;;;;;;90.60;60.47;;;5.00;85.50;;;;;;4976411;28;20035;-69
2022/01/28 02:02:58;;;;;;;92.60;60.27;;;5.00;85.50;;;;;;4977197;28;20038;-69
2022/01/28 02:05:24;;;;;;;96.53;60.47;;;4.90;85.50;;;;;;4978649;28;20030;-68
2022/01/28 02:07:50;;;;;;;95.97;62.23;;;4.90;85.40;;;;;;4977794;28;20483;-68
2022/01/28 02:10:15;;;;;;;90.13;60.57;;;4.90;85.50;;;;;;4977785;28;20061;-68
2022/01/28 02:12:52;;;;;;;91.53;61.87;;;4.90;85.60;;;;;;4977734;28;20486;-69
2022/01/28 02:15:18;;;;;;;92.57;61.83;;;4.90;85.70;;;;;;4977917;28;20038;-69
2022/01/28 02:17:44;;;;;;;92.97;61.00;;;4.90;85.80;;;;;;4977643;28;20026;-69
2022/01/28 02:20:36;;;;;;;90.80;61.07;;;4.90;85.80;;;;;;4977437;28;20065;-68
2022/01/28 02:23:03;;;;;;;96.30;61.50;;;4.90;85.80;;;;;;4977548;28;20031;-69
2022/01/28 02:25:33;;;;;;;96.77;63.83;;;4.90;85.80;;;;;;4960133;28;20476;-69
2022/01/28 02:28:05;;;;;;;88.93;59.90;;;4.90;85.70;;;;;;4977479;28;20514;-69
2022/01/28 02:30:31;;;;;;;93.70;62.15;;;4.90;85.80;;;;;;4977552;28;20137;-69
2022/01/28 02:33:07;;;;;;;95.33;62.90;;;4.90;85.80;;;;;;4977332;28;20515;-69
2022/01/28 02:35:33;;;;;;;95.93;61.87;;;4.90;85.80;;;;;;4961287;28;20382;-69
2022/01/28 02:37:59;;;;;;;95.57;62.63;;;4.90;85.90;;;;;;4977230;28;20105;-69
2022/01/28 02:40:25;;;;;;;99.13;62.50;;;4.90;86.00;;;;;;4977423;28;20427;-69
2022/01/28 02:42:58;;;;;;;97.53;63.37;;;4.90;86.00;;;;;;4977137;28;20424;-69
2022/01/28 02:45:36;;;;;;;95.15;61.15;;;5.00;86.10;;;;;;4977070;28;20117;-69
2022/01/28 02:48:06;;;;;;;97.77;63.30;;;4.90;86.00;;;;;;4977004;28;20035;-69
2022/01/28 02:50:41;;;;;;;91.83;62.30;;;5.00;86.00;;;;;;4977165;28;20039;-69
2022/01/28 02:53:09;;;;;;;95.63;61.07;;;5.00;85.90;;;;;;4976878;28;20030;-69
2022/01/28 02:55:39;;;;;;;91.87;61.23;;;5.00;85.90;;;;;;4976652;28;20073;-69
2022/01/28 02:58:21;;;;;;;96.87;63.27;;;5.00;85.90;;;;;;4976712;28;20487;-69
2022/01/28 03:00:47;;;;;;;98.60;61.47;;;4.90;85.90;;;;;;4977100;28;20019;-69
2022/01/28 03:03:22;;;;;;;92.67;60.80;;;5.00;85.90;;;;;;4977094;28;20483;-69
2022/01/28 03:05:48;;;;;;;91.60;61.20;;;4.90;85.90;;;;;;4976902;28;20101;-69
2022/01/28 03:08:14;;;;;;;96.87;60.93;;;4.90;85.80;;;;;;4976599;28;20029;-69
2022/01/28 03:10:46;;;;;;;96.93;63.30;;;4.90;85.80;;;;;;4977167;28;20406;-69
2022/01/28 03:15:39;;;;;;;90.07;58.30;;;4.90;85.70;;;;;;4976968;28;20387;-69
2022/01/28 03:23:02;;;;;;;88.60;58.93;;;4.90;85.70;;;;;;4977066;28;20031;-69
2022/01/28 03:25:28;;;;;;;87.83;58.87;;;4.90;85.70;;;;;;4976806;28;20026;-68
2022/01/28 03:27:56;;;;;;;87.13;58.40;;;4.90;85.60;;;;;;4976390;28;20030;-69
2022/01/28 03:30:23;;;;;;;87.63;57.80;;;4.90;85.60;;;;;;4976457;28;20026;-68
2022/01/28 03:32:49;;;;;;;82.30;56.53;;;4.90;85.60;;;;;;4976609;28;20023;-69
2022/01/28 03:35:17;;;;;;;87.33;56.63;;;4.90;85.50;;;;;;4976370;28;20035;-69
2022/01/28 03:37:42;;;;;;;89.07;56.67;;;4.90;85.60;;;;;;4976067;28;20376;-69
2022/01/28 03:40:09;;;;;;;86.63;57.37;;;4.80;85.50;;;;;;4976275;28;20042;-69
2022/01/28 03:42:36;;;;;;;86.50;56.70;;;4.80;85.70;;;;;;4976245;28;20031;-69
2022/01/28 03:45:03;;;;;;;93.60;56.67;;;4.80;85.70;;;;;;4976203;28;20109;-69
2022/01/28 03:47:28;;;;;;;86.10;57.17;;;4.80;85.70;;;;;;4958789;28;20023;-69
2022/01/28 03:49:54;;;;;;;87.67;56.43;;;4.80;85.50;;;;;;4976378;28;20038;-69
2022/01/28 03:52:19;;;;;;;85.67;55.77;;;4.80;85.60;;;;;;4975256;28;20062;-69
2022/01/28 03:54:45;;;;;;;89.60;57.90;;;4.80;85.60;;;;;;4958823;28;20093;-69
2022/01/28 03:57:11;;;;;;;84.20;56.83;;;4.80;85.80;;;;;;4975981;28;20441;-69
2022/01/28 03:59:37;;;;;;;84.70;57.80;;;4.70;85.80;;;;;;4974127;28;20027;-69
2022/01/28 04:02:05;;;;;;;84.40;55.47;;;4.70;85.80;;;;;;4975656;28;20475;-69
2022/01/28 04:12:43;;;;;;;85.97;56.17;;;4.80;85.80;;;;;;4940069;28;20042;-69
2022/01/28 04:18:04;;;;;;;90.00;58.00;;;4.80;85.80;;;;;;4957174;28;20053;-69
2022/01/28 04:20:32;;;;;;;90.67;58.17;;;4.80;85.90;;;;;;4975405;28;20467;-69
2022/01/28 04:22:58;;;;;;;88.23;56.50;;;4.70;85.80;;;;;;4975750;28;20027;-69
2022/01/28 04:25:24;;;;;;;86.63;55.83;;;4.70;86.00;;;;;;4975697;28;20035;-69
2022/01/28 04:27:49;;;;;;;92.37;57.90;;;4.70;86.20;;;;;;4975196;28;20037;-69
2022/01/28 04:30:15;;;;;;;87.27;59.43;;;4.80;86.20;;;;;;4975623;28;20034;-69
2022/01/28 04:32:41;;;;;;;90.50;57.97;;;4.70;85.90;;;;;;4974770;28;20039;-69
2022/01/28 04:35:07;;;;;;;88.60;57.90;;;4.80;86.00;;;;;;4975239;28;20030;-69
2022/01/28 05:06:03;;;;;;;80.57;54.17;;;4.70;86.10;;;;;;4974735;28;20043;-69
2022/01/28 05:29:24;;;;;;;94.60;59.13;;;4.80;86.50;;;;;;4974457;28;20399;-70
2022/01/28 05:31:50;;;;;;;80.70;54.60;;;4.80;86.50;;;;;;4974069;28;20105;-70
2022/01/28 05:34:17;;;;;;;86.87;56.80;;;4.80;86.50;;;;;;4973954;28;20038;-70
2022/01/28 05:36:43;;;;;;;85.87;58.03;;;4.80;86.40;;;;;;4974328;28;20026;-71
2022/01/28 05:39:08;;;;;;;91.90;57.30;;;4.80;86.40;;;;;;4974165;28;20031;-70
2022/01/28 05:41:34;;;;;;;90.63;57.63;;;4.80;86.50;;;;;;4974293;28;20135;-70
2022/01/28 05:44:02;;;;;;;88.20;58.30;;;4.80;86.60;;;;;;4974421;28;20035;-70
2022/01/28 05:46:29;;;;;;;91.70;61.17;;;4.80;86.70;;;;;;4974199;28;20033;-70
2022/01/28 05:48:56;;;;;;;90.17;57.67;;;4.70;86.70;;;;;;4974129;28;20041;-70
2022/01/28 05:51:22;;;;;;;88.00;58.67;;;4.70;86.80;;;;;;4974287;28;20019;-70
2022/01/28 05:53:48;;;;;;;96.27;59.63;;;4.70;86.90;;;;;;4974147;28;20437;-70
2022/01/28 05:56:13;;;;;;;88.87;60.00;;;4.70;86.80;;;;;;4974154;28;20451;-71
2022/01/28 05:58:39;;;;;;;91.97;61.40;;;4.70;86.90;;;;;;4974090;28;20755;-70
2022/01/28 06:01:05;;;;;;;90.40;59.90;;;4.70;86.90;;;;;;4974152;28;20023;-70
2022/01/28 06:03:31;;;;;;;87.40;58.50;;;4.70;86.90;;;;;;4974129;28;20458;-70
2022/01/28 06:05:56;;;;;;;86.23;58.20;;;4.80;87.00;;;;;;4956667;28;20037;-70
2022/01/28 06:08:22;;;;;;;91.27;60.40;;;4.70;86.80;;;;;;4973565;28;20488;-70
2022/01/28 06:10:48;;;;;;;86.43;57.80;;;4.80;86.90;;;;;;4973972;28;20055;-70
2022/01/28 06:13:14;;;;;;;92.57;58.77;;;4.80;86.90;;;;;;4973993;28;20033;-70
2022/01/28 06:15:43;;;;;;;95.47;58.80;;;4.80;86.80;;;;;;4974064;28;20031;-70
2022/01/28 06:18:10;;;;;;;102.83;60.23;;;4.80;86.80;;;;;;4973986;28;20081;-70
2022/01/28 06:20:36;;;;;;;92.03;60.10;;;4.80;86.80;;;;;;4973748;28;20499;-70
2022/01/28 06:23:03;;;;;;;87.63;57.57;;;4.80;86.80;;;;;;4973589;28;20026;-70
2022/01/28 06:25:29;;;;;;;89.67;57.53;;;4.80;86.90;;;;;;4973883;28;20150;-72
2022/01/28 06:27:54;;;;;;;91.53;59.70;;;4.80;86.90;;;;;;4973856;28;20035;-73
2022/01/28 06:30:21;;;;;;;100.03;60.93;;;4.80;87.00;;;;;;4974021;28;20042;-72
2022/01/28 06:32:47;;;;;;;97.37;59.87;;;4.80;87.10;;;;;;4973613;28;20022;-73
2022/01/28 06:35:13;;;;;;;92.07;61.37;;;4.80;87.10;;;;;;4973576;28;20464;-72
2022/01/28 06:37:41;;;;;;;95.03;62.23;;;4.70;87.20;;;;;;4974029;28;20029;-73
2022/01/28 06:40:17;;;;;;;92.07;62.13;;;4.70;87.30;;;;;;4973655;28;20081;-73
2022/01/28 06:42:43;;;;;;;94.73;61.37;;;4.70;87.30;;;;;;4973777;28;20058;-73
2022/01/28 06:45:09;;;;;;;102.53;61.53;;;4.70;87.30;;;;;;4976746;28;20147;-72
2022/01/28 06:47:35;;;;;;;96.43;61.97;;;4.70;87.30;;;;;;4977144;28;20034;-72
2022/01/28 06:50:04;;;;;;;95.60;61.00;;;4.70;87.40;;;;;;4977201;28;20047;-73
2022/01/28 06:52:33;;;;;;;97.73;60.67;;;4.70;87.40;;;;;;4977636;28;20038;-73
2022/01/28 06:55:01;;;;;;;98.20;62.93;;;4.70;87.40;;;;;;4977195;28;20026;-73
2022/01/28 06:57:30;;;;;;;94.97;62.90;;;4.70;87.40;;;;;;4977006;28;20491;-74
2022/01/28 06:59:57;;;;;;;90.10;60.93;;;4.70;87.50;;;;;;4977114;28;20031;-73
2022/01/28 07:02:23;;;;;;;94.57;61.97;;;4.70;87.40;;;;;;4976653;28;20038;-74
2022/01/28 07:04:50;;;;;;;91.17;61.93;;;4.60;87.40;;;;;;4976911;28;20030;-73
2022/01/28 07:07:17;;;;;;;95.80;62.17;;;4.60;87.40;;;;;;4976847;28;20030;-73
2022/01/28 07:09:43;;;;;;;97.03;62.43;;;4.60;87.50;;;;;;4958273;28;20051;-73
2022/01/28 07:12:09;;;;;;;91.40;60.53;;;4.60;87.30;;;;;;4975301;28;20157;-73
2022/01/28 07:14:35;;;;;;;96.83;63.83;;;4.60;87.40;;;;;;4976356;28;20092;-72
2022/01/28 07:17:00;;;;;;;94.10;64.40;;;4.60;87.30;;;;;;4975143;28;20113;-72
2022/01/28 07:19:26;;;;;;;99.33;65.23;;;4.50;87.20;;;;;;4974664;28;20031;-73
2022/01/28 07:21:52;;;;;;;100.10;66.67;;;4.50;87.40;;;;;;4974992;28;20023;-73
2022/01/28 07:24:18;;;;;;;101.00;64.17;;;4.50;87.40;;;;;;4975516;28;20499;-73
2022/01/28 07:26:43;;;;;;;101.17;64.33;;;4.50;87.50;;;;;;4976543;28;20495;-73
2022/01/28 07:29:11;;;;;;;97.83;64.00;;;4.50;87.40;;;;;;4976184;28;20089;-73
2022/01/28 07:31:38;;;;;;;95.90;64.40;;;4.50;87.40;;;;;;4976043;28;20027;-72
2022/01/28 07:34:05;;;;;;;103.80;66.50;;;4.50;87.50;;;;;;4976316;28;20377;-73
2022/01/28 07:36:32;;;;;;;111.80;65.13;;;4.50;87.50;;;;;;4976244;28;20027;-73
2022/01/28 07:38:58;;;;;;;98.17;64.87;;;4.60;87.50;;;;;;4975903;28;20523;-76
2022/01/28 07:41:23;;;;;;;119.23;65.87;;;4.60;87.20;;;;;;4974744;28;20062;-73
2022/01/28 07:43:49;;;;;;;121.57;63.50;;;4.60;87.00;;;;;;4976048;28;20035;-76
2022/01/28 07:46:15;;;;;;;104.67;66.07;;;4.60;87.00;;;;;;4974385;28;20042;-73
2022/01/28 07:48:41;;;;;;;106.40;63.77;;;4.70;87.10;;;;;;4972040;28;20035;-74
2022/01/28 07:51:07;;;;;;;104.13;66.23;;;4.70;87.20;;;;;;4972277;28;20061;-76
2022/01/28 07:53:33;;;;;;;103.23;66.80;;;4.70;87.60;;;;;;4973867;28;20106;-76
2022/01/28 07:55:59;;;;;;;107.53;67.53;;;4.70;87.60;;;;;;4975132;28;20105;-77
2022/01/28 07:58:24;;;;;;;108.07;66.43;;;4.70;87.50;;;;;;4975310;28;20027;-76
2022/01/28 08:00:50;;;;;;;121.27;68.63;;;4.80;87.60;;;;;;4975094;28;20495;-76
2022/01/28 08:03:16;;;;;;;107.53;66.30;;;4.80;87.50;;;;;;4958137;28;20030;-74
2022/01/28 08:05:41;;;;;;;105.07;65.97;;;4.90;87.50;;;;;;4975141;28;20042;-72
2022/01/28 08:08:09;;;;;;;129.73;70.63;;;4.90;87.10;;;;;;4974691;28;20441;-76
2022/01/28 08:10:35;;;;;;;97.00;66.10;;;5.00;87.20;;;;;;4973687;28;20061;-76
2022/01/28 08:13:03;;;;;;;105.57;68.03;;;5.00;88.50;;;;;;4972824;28;20031;-78
2022/01/28 08:15:29;;;;;;;104.57;68.10;;;5.00;88.10;;;;;;4971584;28;20139;-78
2022/01/28 08:17:55;;;;;;;105.70;67.47;;;5.10;87.70;;;;;;4973595;28;20027;-78
2022/01/28 08:20:21;;;;;;;111.97;69.33;;;5.10;87.40;;;;;;4974913;28;20085;-77
2022/01/28 08:22:48;;;;;;;103.30;66.80;;;5.20;87.10;;;;;;4975288;28;20025;-77
2022/01/28 08:25:16;;;;;;;105.13;65.60;;;5.20;87.00;;;;;;4974989;28;20494;-77
2022/01/28 08:27:44;;;;;;;93.60;62.27;;;5.20;86.60;;;;;;4975145;28;20102;-76
2022/01/28 08:30:14;;;;;;;98.20;67.07;;;5.30;86.50;;;;;;4974741;28;20088;-76
2022/01/28 08:32:40;;;;;;;105.87;66.70;;;5.30;86.10;;;;;;4974740;28;20069;-76
2022/01/28 08:35:07;;;;;;;93.63;64.90;;;5.40;85.60;;;;;;4975262;28;20432;-77
2022/01/28 08:37:33;;;;;;;95.53;62.10;;;5.50;86.00;;;;;;4975006;28;20042;-77
2022/01/28 08:40:00;;;;;;;102.07;64.37;;;5.50;85.80;;;;;;4974904;28;20034;-77
2022/01/28 08:42:26;;;;;;;98.77;63.83;;;5.60;85.80;;;;;;4974629;28;20023;-78
2022/01/28 08:44:52;;;;;;;108.33;64.07;;;5.60;85.60;;;;;;4973943;28;20031;-77
2022/01/28 08:47:18;;;;;;;99.23;64.87;;;5.70;85.40;;;;;;4973842;28;20082;-77
2022/01/28 08:49:45;;;;;;;101.40;63.03;;;5.80;85.20;;;;;;4973686;28;20077;-78
2022/01/28 08:52:10;;;;;;;102.53;65.70;;;5.80;85.10;;;;;;4974138;28;20081;-75
2022/01/28 08:54:36;;;;;;;98.83;65.50;;;5.90;84.60;;;;;;4974342;28;20031;-77
2022/01/28 08:57:02;;;;;;;105.23;67.93;;;6.00;84.10;;;;;;4974015;28;20019;-77
2022/01/28 08:59:27;;;;;;;100.97;66.40;;;6.10;84.10;;;;;;4974381;28;20023;-77
2022/01/28 09:01:53;;;;;;;100.87;61.93;;;6.10;83.80;;;;;;4974267;28;20027;-77
2022/01/28 09:04:19;;;;;;;94.13;62.33;;;6.20;83.50;;;;;;4973310;28;20089;-77
2022/01/28 09:06:46;;;;;;;96.53;62.33;;;6.20;83.40;;;;;;4973027;28;20022;-76
2022/01/28 09:09:11;;;;;;;96.57;64.73;;;6.30;83.10;;;;;;4974268;28;20069;-77
2022/01/28 09:11:53;;;;;;;95.53;61.37;;;6.40;83.00;;;;;;4974227;28;20023;-78
2022/01/28 09:14:21;;;;;;;95.73;60.43;;;6.40;82.90;;;;;;4974428;28;20395;-77
2022/01/28 09:16:47;;;;;;;90.43;61.00;;;6.50;82.60;;;;;;4974541;28;20349;-78
2022/01/28 09:19:12;;;;;;;92.20;59.27;;;6.60;82.50;;;;;;4974381;28;20035;-77
2022/01/28 09:21:38;;;;;;;90.90;56.73;;;6.70;82.60;;;;;;4973937;28;20103;-76
2022/01/28 09:24:04;;;;;;;83.50;52.80;;;6.70;82.20;;;;;;4974089;28;20540;-76
2022/01/28 09:26:30;;;;;;;84.03;52.93;;;6.80;81.70;;;;;;4974071;28;20019;-77
2022/01/28 09:28:57;;;;;;;78.27;49.57;;;6.80;80.90;;;;;;4956492;28;20031;-76
2022/01/28 09:31:22;;;;;;;80.97;52.97;;;6.90;80.90;;;;;;4973461;28;20030;-76
2022/01/28 09:33:48;;;;;;;86.30;53.47;;;7.00;80.30;;;;;;4974250;28;20423;-77
2022/01/28 09:36:14;;;;;;;77.93;49.20;;;7.10;80.20;;;;;;4974344;28;20054;-76
2022/01/28 09:38:40;;;;;;;80.70;53.07;;;7.10;80.10;;;;;;4974010;28;20019;-75
2022/01/28 09:41:08;;;;;;;77.60;49.23;;;7.20;79.80;;;;;;4974329;28;20029;-75
2022/01/28 09:43:34;;;;;;;84.37;53.00;;;7.20;79.50;;;;;;4972509;28;20019;-76
2022/01/28 09:46:01;;;;;;;79.50;51.03;;;7.30;79.20;;;;;;4973367;28;20044;-78
2022/01/28 09:48:27;;;;;;;87.37;54.10;;;7.40;79.00;;;;;;4973637;28;20503;-76
2022/01/28 09:50:53;;;;;;;77.30;50.43;;;7.50;78.90;;;;;;4972833;28;20106;-77
2022/01/28 09:53:19;;;;;;;77.63;48.57;;;7.50;78.40;;;;;;4973886;28;20098;-75
2022/01/28 09:55:47;;;;;;;118.10;49.27;;;7.60;78.00;;;;;;4974267;28;20443;-75
2022/01/28 09:58:13;;;;;;;75.47;48.27;;;7.70;77.60;;;;;;4974022;28;20391;-74
2022/01/28 10:00:39;;;;;;;67.87;43.93;;;7.80;77.20;;;;;;4974336;28;20042;-77
2022/01/28 10:03:08;;;;;;;67.70;41.80;;;7.80;76.80;;;;;;4974169;28;20037;-75
2022/01/28 10:05:43;;;;;;;68.53;40.43;;;8.00;76.40;;;;;;4973687;28;20031;-76
2022/01/28 10:08:24;;;;;;;67.80;41.53;;;8.10;75.70;;;;;;4973909;28;20143;-76
2022/01/28 10:10:52;;;;;;;65.03;39.60;;;8.10;74.80;;;;;;4974344;28;20042;-75
2022/01/28 10:13:43;;;;;;;65.57;38.70;;;8.20;74.70;;;;;;4973916;28;20085;-76
2022/01/28 10:16:30;;;;;;;61.50;39.97;;;8.30;74.20;;;;;;4973826;28;20034;-75
2022/01/28 10:19:03;;;;;;;63.03;38.00;;;8.30;73.30;;;;;;4975146;28;20419;-76
2022/01/28 10:21:36;;;;;;;62.40;37.20;;;8.40;73.10;;;;;;4977821;28;20023;-75
2022/01/28 10:24:14;;;;;;;62.70;37.27;;;8.50;72.30;;;;;;4977598;28;20082;-77
2022/01/28 10:26:47;;;;;;;61.33;37.77;;;8.60;72.30;;;;;;4977762;28;20037;-76
2022/01/28 10:29:21;;;;;;;61.87;36.63;;;8.60;72.00;;;;;;4977706;28;20043;-75
2022/01/28 10:31:56;;;;;;;60.50;36.63;;;8.70;71.60;;;;;;4977278;28;20023;-76
2022/01/28 10:34:49;;;;;;;62.90;36.23;;;8.80;71.40;;;;;;4976293;28;20554;-75
2022/01/28 10:37:36;;;;;;;59.38;37.80;;;8.90;71.10;;;;;;4977501;28;20054;-75
2022/01/28 10:40:09;;;;;;;58.50;37.57;;;9.00;70.50;;;;;;4977733;28;20038;-73
2022/01/28 10:42:49;;;;;;;66.40;42.87;;;9.10;70.70;;;;;;4976371;28;20082;-73
2022/01/28 10:45:18;;;;;;;70.57;43.10;;;9.10;71.40;;;;;;4976415;28;20027;-76
2022/01/28 10:47:46;;;;;;;69.77;42.23;;;9.20;71.80;;;;;;4976714;28;20089;-76
2022/01/28 10:50:30;;;;;;;66.87;43.43;;;9.30;71.40;;;;;;4976693;28;20505;-76
2022/01/28 10:53:17;;;;;;;63.27;42.63;;;9.40;70.60;;;;;;4976782;28;20031;-75
2022/01/28 10:55:52;;;;;;;72.07;44.40;;;9.40;70.00;;;;;;4975975;28;20026;-72
2022/01/28 10:58:20;;;;;;;68.03;43.83;;;9.40;69.30;;;;;;4976823;28;20375;-76
2022/01/28 11:00:48;;;;;;;66.10;44.70;;;9.50;68.90;;;;;;4976988;28;20538;-74
2022/01/28 11:03:21;;;;;;;67.53;44.50;;;9.50;69.10;;;;;;4977033;28;20101;-75
2022/01/28 11:05:47;;;;;;;69.80;45.10;;;9.50;68.90;;;;;;4977062;28;20537;-74
2022/01/28 11:08:14;;;;;;;71.80;45.87;;;9.60;69.20;;;;;;4976733;28;20107;-75
2022/01/28 11:10:41;;;;;;;100.63;49.40;;;9.60;68.80;;;;;;4976943;28;20038;-75
2022/01/28 11:13:08;;;;;;;75.90;46.00;;;9.70;68.90;;;;;;4976995;28;20061;-76
2022/01/28 11:15:34;;;;;;;96.60;50.80;;;9.70;68.70;;;;;;4976719;28;20476;-76
2022/01/28 11:18:03;;;;;;;74.63;45.27;;;9.80;69.90;;;;;;4976486;28;20110;-75
2022/01/28 11:20:35;;;;;;;82.37;44.97;;;9.90;68.80;;;;;;4976473;28;20027;-79
2022/01/28 11:23:31;;;;;;;79.30;47.40;;;9.90;68.70;;;;;;4976154;28;20019;-79
2022/01/28 11:26:18;;;;;;;98.73;45.57;;;10.00;67.40;;;;;;4974436;28;20490;-79
2022/01/28 11:28:50;;;;;;;84.40;45.30;;;10.00;67.30;;;;;;4974067;28;20043;-78
2022/01/28 11:31:36;;;;;;;;;;;10.00;67.70;;;;;;4973305;28;20101;-78
2022/01/28 11:34:19;;;;;;;98.17;47.77;;;10.10;67.80;;;;;;4975260;28;20380;-77
2022/01/28 11:36:45;;;;;;;113.63;52.83;;;10.10;67.30;;;;;;4976132;28;20116;-76
2022/01/28 11:39:45;;;;;;;80.17;45.10;;;10.20;66.40;;;;;;4973858;28;20021;-76
2022/01/28 11:42:15;;;;;;;153.75;57.70;;;10.20;66.80;;;;;;4965878;28;20046;-78
2022/01/28 11:44:50;;;;;;;71.27;40.10;;;10.30;67.20;;;;;;4975748;28;20041;-77
2022/01/28 11:47:45;;;;;;;62.90;41.83;;;10.30;67.20;;;;;;4976264;28;20109;-79
2022/01/28 11:50:16;;;;;;;63.70;40.03;;;10.40;65.60;;;;;;4975156;28;20055;-78
2022/01/28 11:52:53;;;;;;;67.10;41.13;;;10.50;64.70;;;;;;4976509;28;20026;-78
2022/01/28 11:55:20;;;;;;;64.72;42.10;;;10.60;64.80;;;;;;4976330;28;20027;-78
2022/01/28 11:57:57;;;;;;;80.47;45.53;;;10.60;67.10;;;;;;4975150;28;20506;-77
2022/01/28 12:00:25;;;;;;;76.78;44.05;;;10.70;68.20;;;;;;4973089;28;20610;-76
2022/01/28 12:02:53;;;;;;;69.88;43.72;;;10.70;67.10;;;;;;4973135;28;20033;-76
2022/01/28 12:05:30;;;;;;;77.85;43.70;;;10.80;67.30;;;;;;4975588;28;20105;-75
2022/01/28 12:08:00;;;;;;;73.72;43.67;;;10.80;67.80;;;;;;4975879;28;20038;-77
2022/01/28 12:10:30;;;;;;;66.53;42.45;;;10.90;67.80;;;;;;4975802;28;20054;-75
2022/01/28 12:13:06;;;;;;;62.25;41.35;;;10.90;67.10;;;;;;4975720;28;20023;-75
2022/01/28 12:16:01;;;;;;;64.32;41.17;;;10.90;65.20;;;;;;4975569;28;20085;-75
2022/01/28 12:18:45;;;;;;;62.28;42.13;;;11.00;64.30;;;;;;4975788;28;20030;-76
2022/01/28 12:21:20;;;;;;;63.78;42.35;;;11.00;63.30;;;;;;4975363;28;20030;-73
2022/01/28 12:23:47;;;;;;;67.70;42.20;;;11.10;63.10;;;;;;4973390;28;20026;-75
2022/01/28 12:26:16;;;;;;;66.50;43.75;;;11.10;62.20;;;;;;4973153;28;20027;-75
2022/01/28 12:28:45;;;;;;;64.15;42.75;;;11.10;61.20;;;;;;4972484;28;20034;-76
2022/01/28 12:31:16;;;;;;;68.68;43.15;;;11.10;61.60;;;;;;4974407;28;20085;-74
2022/01/28 12:33:44;;;;;;;63.42;41.72;;;11.10;61.20;;;;;;4973494;28;20419;-76
2022/01/28 12:36:37;;;;;;;60.65;41.33;;;11.10;60.10;;;;;;4974699;28;20038;-74
2022/01/28 12:39:21;;;;;;;66.20;42.45;;;11.10;60.40;;;;;;4970204;28;20339;-74
2022/01/28 12:42:04;;;;;;;68.28;45.28;;;11.10;60.00;;;;;;4974394;28;20151;-74
2022/01/28 12:44:32;;;;;;;66.28;40.97;;;11.10;59.70;;;;;;4974976;28;20031;-76
2022/01/28 12:47:01;;;;;;;69.95;42.30;;;11.10;61.20;;;;;;4974831;28;20050;-75
2022/01/28 12:49:29;;;;;;;68.60;44.72;;;11.20;61.20;;;;;;4974829;28;20035;-74
2022/01/28 12:51:57;;;;;;;68.18;45.55;;;11.20;60.70;;;;;;4974959;28;20023;-73
2022/01/28 12:54:42;;;;;;;80.53;49.03;;;11.20;60.60;;;;;;4974324;28;20045;-73
2022/01/28 12:57:10;;;;;;;69.75;44.40;;;11.30;60.80;;;;;;4973581;28;20026;-75
2022/01/28 12:59:38;;;;;;;83.35;47.67;;;11.30;61.00;;;;;;4973052;28;20418;-73
2022/01/28 13:02:04;;;;;;;64.65;41.97;;;11.30;60.70;;;;;;4974271;28;20037;-74
2022/01/28 13:04:49;;;;;;;89.80;47.38;;;11.30;59.70;;;;;;4973688;28;20027;-75
2022/01/28 13:09:54;;;;;;;86.80;46.88;;;11.30;60.30;;;;;;4973865;28;20381;-72
2022/01/28 13:12:28;;;;;;;64.97;43.85;;;11.40;59.80;;;;;;4974090;28;20031;-74
2022/01/28 13:14:54;;;;;;;74.32;42.00;;;11.40;59.70;;;;;;4974184;28;20412;-76
2022/01/28 13:17:23;;;;;;;67.35;40.75;;;11.30;59.70;;;;;;4974020;28;20031;-75
2022/01/28 13:20:00;;;;;;;83.68;44.80;;;11.30;58.50;;;;;;4973988;28;20530;-75
2022/01/28 13:22:29;;;;;;;86.93;46.90;;;11.30;59.70;;;;;;4970722;28;20050;-74
2022/01/28 13:24:56;;;;;;;82.75;50.35;;;11.20;60.10;;;;;;4971610;28;20033;-74
2022/01/28 13:27:38;;;;;;;83.85;49.45;;;11.20;60.60;;;;;;4972135;28;20027;-75
2022/01/28 13:30:13;;;;;;;111.20;55.17;;;11.20;61.40;;;;;;4973830;28;20070;-74
2022/01/28 13:32:41;;;;;;;100.93;56.28;;;11.30;61.20;;;;;;4973903;28;20026;-73
2022/01/28 13:35:14;;;;;;;75.45;46.00;;;11.30;61.70;;;;;;4974152;28;20038;-75
2022/01/28 13:37:55;;;;;;;78.70;47.13;;;11.20;60.20;;;;;;4973856;28;20077;-74
2022/01/28 13:40:21;;;;;;;66.50;42.08;;;11.20;60.20;;;;;;4972817;28;20041;-74
2022/01/28 13:42:56;;;;;;;62.65;41.60;;;11.20;59.90;;;;;;4971311;28;20102;-74
2022/01/28 13:45:30;;;;;;;62.63;42.25;;;11.20;59.80;;;;;;4972393;28;20031;-75
2022/01/28 13:47:56;;;;;;;66.53;45.00;;;11.20;59.50;;;;;;4974288;28;20027;-75
2022/01/28 13:50:42;;;;;;;64.63;44.92;;;11.20;60.40;;;;;;4973955;28;20031;-74
2022/01/28 13:53:21;;;;;;;67.78;43.00;;;11.20;58.80;;;;;;4973343;28;20027;-74
2022/01/28 13:55:49;;;;;;;63.28;41.78;;;11.10;58.50;;;;;;4973709;28;20467;-74
2022/01/28 13:58:15;;;;;;;73.85;43.38;;;11.10;58.40;;;;;;4973735;28;20035;-75
2022/01/28 14:00:51;;;;;;;64.60;40.47;;;11.00;58.10;;;;;;4973828;28;20035;-75
2022/01/28 14:03:26;;;;;;;62.22;40.20;;;11.00;59.00;;;;;;4973739;28;20029;-75
2022/01/28 14:05:57;;;;;;;64.13;40.05;;;11.00;58.90;;;;;;4973906;28;20041;-77
2022/01/28 14:08:44;;;;;;;64.43;40.85;;;11.00;58.80;;;;;;4973479;28;20487;-74
2022/01/28 14:11:31;;;;;;;62.40;40.15;;;11.00;58.80;;;;;;4972740;28;20510;-75
2022/01/28 14:14:16;;;;;;;65.60;40.33;;;11.00;58.80;;;;;;4972716;28;20038;-76
2022/01/28 14:16:47;;;;;;;66.25;42.75;;;10.90;58.00;;;;;;4974172;28;20030;-74
2022/01/28 14:19:14;;;;;;;66.13;40.92;;;10.90;57.90;;;;;;4973843;28;20023;-75
2022/01/28 14:21:41;;;;;;;65.40;41.63;;;10.80;58.90;;;;;;4973957;28;20035;-75
2022/01/28 14:24:08;;;;;;;64.70;40.03;;;10.80;59.20;;;;;;4973848;28;20094;-75
2022/01/28 14:26:41;;;;;;;61.90;37.83;;;10.80;59.40;;;;;;4973991;28;20109;-74
2022/01/28 14:29:23;;;;;;;64.50;38.75;;;10.80;58.90;;;;;;4973607;28;20106;-74
2022/01/28 14:31:50;;;;;;;62.25;37.60;;;10.80;58.40;;;;;;4973845;28;20058;-76
2022/01/28 14:34:17;;;;;;;59.78;38.05;;;10.80;58.00;;;;;;4974008;28;20133;-74
2022/01/28 14:36:43;;;;;;;59.70;38.33;;;10.80;57.90;;;;;;4974008;28;20034;-75